sensor_id;sensor_type;location;lat;lon;timestamp;P1;durP1;ratioP1;P2;durP2;ratioP2
44822;SDS011;51097;51.984;5.650;2023-03-23T00:01:03;6.95;;;5.90;;
44822;SDS011;51097;51.984;5.650;2023-03-23T00:03:30;6.97;;;4.43;;
44822;SDS011;51097;51.984;5.650;2023-03-23T00:05:59;12.35;;;6.30;;
44822;SDS011;51097;51.984;5.650;2023-03-23T00:08:29;7.18;;;4.63;;
44822;SDS011;51097;51.984;5.650;2023-03-23T00:10:56;7.90;;;5.05;;
44822;SDS011;51097;51.984;5.650;2023-03-23T00:13:25;10.75;;;5.57;;
44822;SDS011;51097;51.984;5.650;2023-03-23T00:18:20;7.22;;;4.43;;
44822;SDS011;51097;51.984;5.650;2023-03-23T00:20:53;5.95;;;4.70;;
44822;SDS011;51097;51.984;5.650;2023-03-23T00:23:22;8.70;;;4.50;;
44822;SDS011;51097;51.984;5.650;2023-03-23T00:25:53;6.63;;;4.60;;
44822;SDS011;51097;51.984;5.650;2023-03-23T00:28:24;6.78;;;4.45;;
44822;SDS011;51097;51.984;5.650;2023-03-23T00:30:55;6.90;;;4.43;;
44822;SDS011;51097;51.984;5.650;2023-03-23T00:33:23;9.02;;;4.05;;
44822;SDS011;51097;51.984;5.650;2023-03-23T00:35:51;8.52;;;4.57;;
44822;SDS011;51097;51.984;5.650;2023-03-23T00:38:18;5.32;;;4.72;;
44822;SDS011;51097;51.984;5.650;2023-03-23T00:40:44;7.30;;;4.55;;
44822;SDS011;51097;51.984;5.650;2023-03-23T00:43:12;8.95;;;4.95;;
44822;SDS011;51097;51.984;5.650;2023-03-23T00:45:41;8.73;;;4.50;;
44822;SDS011;51097;51.984;5.650;2023-03-23T00:48:09;8.25;;;5.40;;
44822;SDS011;51097;51.984;5.650;2023-03-23T00:50:37;7.20;;;4.28;;
44822;SDS011;51097;51.984;5.650;2023-03-23T00:53:04;8.45;;;4.72;;
44822;SDS011;51097;51.984;5.650;2023-03-23T00:55:30;5.47;;;4.30;;
44822;SDS011;51097;51.984;5.650;2023-03-23T00:57:56;11.35;;;4.80;;
44822;SDS011;51097;51.984;5.650;2023-03-23T01:00:21;5.57;;;4.03;;
44822;SDS011;51097;51.984;5.650;2023-03-23T01:02:48;6.93;;;4.57;;
44822;SDS011;51097;51.984;5.650;2023-03-23T01:05:16;7.25;;;4.82;;
44822;SDS011;51097;51.984;5.650;2023-03-23T01:07:42;4.82;;;4.18;;
44822;SDS011;51097;51.984;5.650;2023-03-23T01:10:09;6.45;;;4.82;;
44822;SDS011;51097;51.984;5.650;2023-03-23T01:12:37;6.43;;;4.25;;
44822;SDS011;51097;51.984;5.650;2023-03-23T01:15:03;6.60;;;4.18;;
44822;SDS011;51097;51.984;5.650;2023-03-23T01:17:30;9.60;;;4.60;;
44822;SDS011;51097;51.984;5.650;2023-03-23T01:19:55;5.28;;;3.80;;
44822;SDS011;51097;51.984;5.650;2023-03-23T01:22:21;4.65;;;3.85;;
44822;SDS011;51097;51.984;5.650;2023-03-23T01:24:47;6.70;;;4.43;;
44822;SDS011;51097;51.984;5.650;2023-03-23T01:27:12;7.50;;;4.38;;
44822;SDS011;51097;51.984;5.650;2023-03-23T01:29:38;7.25;;;4.53;;
44822;SDS011;51097;51.984;5.650;2023-03-23T01:32:03;5.22;;;4.18;;
44822;SDS011;51097;51.984;5.650;2023-03-23T01:34:29;3.83;;;3.40;;
44822;SDS011;51097;51.984;5.650;2023-03-23T01:36:55;6.97;;;4.30;;
44822;SDS011;51097;51.984;5.650;2023-03-23T01:39:20;4.00;;;3.60;;
44822;SDS011;51097;51.984;5.650;2023-03-23T01:41:46;5.50;;;3.88;;
44822;SDS011;51097;51.984;5.650;2023-03-23T01:46:44;6.68;;;4.43;;
44822;SDS011;51097;51.984;5.650;2023-03-23T01:51:57;6.57;;;4.55;;
44822;SDS011;51097;51.984;5.650;2023-03-23T01:54:27;5.82;;;4.22;;
44822;SDS011;51097;51.984;5.650;2023-03-23T01:57:02;8.35;;;5.50;;
44822;SDS011;51097;51.984;5.650;2023-03-23T01:59:32;5.25;;;4.30;;
44822;SDS011;51097;51.984;5.650;2023-03-23T02:01:59;6.32;;;3.90;;
44822;SDS011;51097;51.984;5.650;2023-03-23T02:04:27;5.60;;;3.92;;
44822;SDS011;51097;51.984;5.650;2023-03-23T02:06:55;4.90;;;4.03;;
44822;SDS011;51097;51.984;5.650;2023-03-23T02:12:02;6.88;;;4.25;;
44822;SDS011;51097;51.984;5.650;2023-03-23T02:14:28;5.72;;;4.32;;
44822;SDS011;51097;51.984;5.650;2023-03-23T02:17:06;4.05;;;3.63;;
44822;SDS011;51097;51.984;5.650;2023-03-23T02:22:42;6.38;;;5.10;;
44822;SDS011;51097;51.984;5.650;2023-03-23T02:27:45;5.65;;;4.32;;
44822;SDS011;51097;51.984;5.650;2023-03-23T02:30:18;6.95;;;3.90;;
44822;SDS011;51097;51.984;5.650;2023-03-23T02:35:37;5.28;;;4.43;;
44822;SDS011;51097;51.984;5.650;2023-03-23T02:38:14;6.90;;;5.07;;
44822;SDS011;51097;51.984;5.650;2023-03-23T02:40:47;5.30;;;4.80;;
44822;SDS011;51097;51.984;5.650;2023-03-23T02:43:16;6.13;;;4.55;;
44822;SDS011;51097;51.984;5.650;2023-03-23T02:48:12;4.68;;;4.20;;
44822;SDS011;51097;51.984;5.650;2023-03-23T02:50:41;5.53;;;5.03;;
44822;SDS011;51097;51.984;5.650;2023-03-23T02:55:39;10.30;;;5.65;;
44822;SDS011;51097;51.984;5.650;2023-03-23T02:58:10;8.55;;;5.70;;
44822;SDS011;51097;51.984;5.650;2023-03-23T03:00:37;8.15;;;5.82;;
44822;SDS011;51097;51.984;5.650;2023-03-23T03:03:04;9.18;;;6.10;;
44822;SDS011;51097;51.984;5.650;2023-03-23T03:05:38;7.45;;;5.10;;
44822;SDS011;51097;51.984;5.650;2023-03-23T03:08:27;6.90;;;4.90;;
44822;SDS011;51097;51.984;5.650;2023-03-23T03:11:09;8.23;;;5.30;;
44822;SDS011;51097;51.984;5.650;2023-03-23T03:13:50;5.00;;;4.50;;
44822;SDS011;51097;51.984;5.650;2023-03-23T03:19:03;5.13;;;4.53;;
44822;SDS011;51097;51.984;5.650;2023-03-23T03:21:34;10.13;;;4.88;;
44822;SDS011;51097;51.984;5.650;2023-03-23T03:24:03;5.15;;;4.32;;
44822;SDS011;51097;51.984;5.650;2023-03-23T03:26:36;7.07;;;4.65;;
44822;SDS011;51097;51.984;5.650;2023-03-23T03:29:04;9.05;;;4.55;;
44822;SDS011;51097;51.984;5.650;2023-03-23T03:31:32;9.88;;;4.78;;
44822;SDS011;51097;51.984;5.650;2023-03-23T03:34:02;5.57;;;4.25;;
44822;SDS011;51097;51.984;5.650;2023-03-23T03:36:29;6.28;;;3.63;;
44822;SDS011;51097;51.984;5.650;2023-03-23T03:38:59;8.05;;;4.10;;
44822;SDS011;51097;51.984;5.650;2023-03-23T03:41:31;6.68;;;3.97;;
44822;SDS011;51097;51.984;5.650;2023-03-23T03:43:57;4.03;;;3.55;;
44822;SDS011;51097;51.984;5.650;2023-03-23T03:46:22;6.97;;;4.00;;
44822;SDS011;51097;51.984;5.650;2023-03-23T03:48:51;7.28;;;4.05;;
44822;SDS011;51097;51.984;5.650;2023-03-23T03:51:17;5.15;;;4.10;;
44822;SDS011;51097;51.984;5.650;2023-03-23T03:53:43;5.95;;;4.20;;
44822;SDS011;51097;51.984;5.650;2023-03-23T03:56:09;8.10;;;3.70;;
44822;SDS011;51097;51.984;5.650;2023-03-23T03:58:35;8.68;;;5.07;;
44822;SDS011;51097;51.984;5.650;2023-03-23T04:01:01;5.40;;;4.13;;
44822;SDS011;51097;51.984;5.650;2023-03-23T04:03:28;8.15;;;3.92;;
44822;SDS011;51097;51.984;5.650;2023-03-23T04:05:54;7.43;;;3.88;;
44822;SDS011;51097;51.984;5.650;2023-03-23T04:10:51;5.65;;;4.07;;
44822;SDS011;51097;51.984;5.650;2023-03-23T04:13:18;8.32;;;3.63;;
44822;SDS011;51097;51.984;5.650;2023-03-23T04:15:44;5.15;;;3.90;;
44822;SDS011;51097;51.984;5.650;2023-03-23T04:18:11;4.72;;;3.40;;
44822;SDS011;51097;51.984;5.650;2023-03-23T04:20:37;5.45;;;3.78;;
44822;SDS011;51097;51.984;5.650;2023-03-23T04:23:03;7.25;;;3.78;;
44822;SDS011;51097;51.984;5.650;2023-03-23T04:25:28;5.97;;;3.33;;
44822;SDS011;51097;51.984;5.650;2023-03-23T04:27:57;9.65;;;3.97;;
44822;SDS011;51097;51.984;5.650;2023-03-23T04:30:26;5.88;;;3.67;;
44822;SDS011;51097;51.984;5.650;2023-03-23T04:32:54;6.43;;;3.88;;
44822;SDS011;51097;51.984;5.650;2023-03-23T04:35:20;5.80;;;3.65;;
44822;SDS011;51097;51.984;5.650;2023-03-23T04:37:47;4.55;;;3.35;;
44822;SDS011;51097;51.984;5.650;2023-03-23T04:40:14;7.25;;;3.60;;
44822;SDS011;51097;51.984;5.650;2023-03-23T04:42:43;8.20;;;3.33;;
44822;SDS011;51097;51.984;5.650;2023-03-23T04:47:38;4.80;;;3.45;;
44822;SDS011;51097;51.984;5.650;2023-03-23T04:50:07;8.05;;;3.30;;
44822;SDS011;51097;51.984;5.650;2023-03-23T04:52:35;6.47;;;3.30;;
44822;SDS011;51097;51.984;5.650;2023-03-23T04:55:03;8.90;;;3.60;;
44822;SDS011;51097;51.984;5.650;2023-03-23T04:57:30;6.28;;;2.90;;
44822;SDS011;51097;51.984;5.650;2023-03-23T04:59:56;6.53;;;3.10;;
44822;SDS011;51097;51.984;5.650;2023-03-23T05:02:22;8.23;;;2.70;;
44822;SDS011;51097;51.984;5.650;2023-03-23T05:04:48;6.13;;;2.80;;
44822;SDS011;51097;51.984;5.650;2023-03-23T05:07:14;4.30;;;3.40;;
44822;SDS011;51097;51.984;5.650;2023-03-23T05:09:40;5.72;;;2.63;;
44822;SDS011;51097;51.984;5.650;2023-03-23T05:12:06;6.53;;;3.15;;
44822;SDS011;51097;51.984;5.650;2023-03-23T05:14:34;7.78;;;3.50;;
44822;SDS011;51097;51.984;5.650;2023-03-23T05:16:59;7.20;;;3.35;;
44822;SDS011;51097;51.984;5.650;2023-03-23T05:19:25;6.35;;;2.85;;
44822;SDS011;51097;51.984;5.650;2023-03-23T05:21:52;6.13;;;3.42;;
44822;SDS011;51097;51.984;5.650;2023-03-23T05:24:19;5.53;;;2.47;;
44822;SDS011;51097;51.984;5.650;2023-03-23T05:26:44;7.75;;;2.30;;
44822;SDS011;51097;51.984;5.650;2023-03-23T05:29:13;8.40;;;3.15;;
44822;SDS011;51097;51.984;5.650;2023-03-23T05:31:39;10.52;;;2.75;;
44822;SDS011;51097;51.984;5.650;2023-03-23T05:34:05;6.72;;;2.72;;
44822;SDS011;51097;51.984;5.650;2023-03-23T05:36:30;5.38;;;3.03;;
44822;SDS011;51097;51.984;5.650;2023-03-23T05:38:56;4.00;;;2.03;;
44822;SDS011;51097;51.984;5.650;2023-03-23T05:41:25;11.55;;;2.85;;
44822;SDS011;51097;51.984;5.650;2023-03-23T05:43:50;6.05;;;2.55;;
44822;SDS011;51097;51.984;5.650;2023-03-23T05:46:16;8.18;;;3.03;;
44822;SDS011;51097;51.984;5.650;2023-03-23T05:48:42;4.38;;;2.78;;
44822;SDS011;51097;51.984;5.650;2023-03-23T05:51:08;5.75;;;2.95;;
44822;SDS011;51097;51.984;5.650;2023-03-23T05:53:34;4.53;;;1.98;;
44822;SDS011;51097;51.984;5.650;2023-03-23T05:56:00;7.90;;;2.40;;
44822;SDS011;51097;51.984;5.650;2023-03-23T05:58:26;6.60;;;2.70;;
44822;SDS011;51097;51.984;5.650;2023-03-23T06:00:52;9.40;;;3.28;;
44822;SDS011;51097;51.984;5.650;2023-03-23T06:03:18;5.95;;;2.55;;
44822;SDS011;51097;51.984;5.650;2023-03-23T06:05:44;5.68;;;3.10;;
44822;SDS011;51097;51.984;5.650;2023-03-23T06:08:10;4.78;;;3.55;;
44822;SDS011;51097;51.984;5.650;2023-03-23T06:10:36;6.00;;;3.63;;
44822;SDS011;51097;51.984;5.650;2023-03-23T06:13:02;7.72;;;1.85;;
44822;SDS011;51097;51.984;5.650;2023-03-23T06:15:29;3.63;;;1.63;;
44822;SDS011;51097;51.984;5.650;2023-03-23T06:18:00;6.28;;;2.35;;
44822;SDS011;51097;51.984;5.650;2023-03-23T06:20:29;5.97;;;2.35;;
44822;SDS011;51097;51.984;5.650;2023-03-23T06:22:55;8.10;;;2.10;;
44822;SDS011;51097;51.984;5.650;2023-03-23T06:25:21;4.10;;;2.38;;
44822;SDS011;51097;51.984;5.650;2023-03-23T06:27:47;9.60;;;2.97;;
44822;SDS011;51097;51.984;5.650;2023-03-23T06:30:13;5.97;;;2.58;;
44822;SDS011;51097;51.984;5.650;2023-03-23T06:32:42;5.10;;;2.45;;
44822;SDS011;51097;51.984;5.650;2023-03-23T06:35:10;9.05;;;2.63;;
44822;SDS011;51097;51.984;5.650;2023-03-23T06:37:36;9.00;;;2.50;;
44822;SDS011;51097;51.984;5.650;2023-03-23T06:40:03;5.40;;;2.20;;
44822;SDS011;51097;51.984;5.650;2023-03-23T06:44:59;5.75;;;2.65;;
44822;SDS011;51097;51.984;5.650;2023-03-23T06:47:29;10.30;;;2.72;;
44822;SDS011;51097;51.984;5.650;2023-03-23T06:49:55;10.85;;;2.47;;
44822;SDS011;51097;51.984;5.650;2023-03-23T06:52:22;9.20;;;2.67;;
44822;SDS011;51097;51.984;5.650;2023-03-23T06:54:50;8.25;;;2.45;;
44822;SDS011;51097;51.984;5.650;2023-03-23T06:57:19;4.07;;;2.20;;
44822;SDS011;51097;51.984;5.650;2023-03-23T06:59:45;7.57;;;2.55;;
44822;SDS011;51097;51.984;5.650;2023-03-23T07:02:12;9.93;;;3.72;;
44822;SDS011;51097;51.984;5.650;2023-03-23T07:04:42;7.75;;;2.42;;
44822;SDS011;51097;51.984;5.650;2023-03-23T07:07:08;6.70;;;2.25;;
44822;SDS011;51097;51.984;5.650;2023-03-23T07:09:35;9.10;;;3.33;;
44822;SDS011;51097;51.984;5.650;2023-03-23T07:12:01;9.05;;;2.88;;
44822;SDS011;51097;51.984;5.650;2023-03-23T07:14:27;6.43;;;2.47;;
44822;SDS011;51097;51.984;5.650;2023-03-23T07:16:53;7.93;;;2.25;;
44822;SDS011;51097;51.984;5.650;2023-03-23T07:19:19;9.23;;;3.30;;
44822;SDS011;51097;51.984;5.650;2023-03-23T07:21:45;5.68;;;2.20;;
44822;SDS011;51097;51.984;5.650;2023-03-23T07:24:11;8.38;;;2.78;;
44822;SDS011;51097;51.984;5.650;2023-03-23T07:26:43;10.30;;;2.97;;
44822;SDS011;51097;51.984;5.650;2023-03-23T07:29:13;10.25;;;2.60;;
44822;SDS011;51097;51.984;5.650;2023-03-23T07:31:39;7.50;;;3.30;;
44822;SDS011;51097;51.984;5.650;2023-03-23T07:34:04;9.40;;;2.38;;
44822;SDS011;51097;51.984;5.650;2023-03-23T07:36:31;7.28;;;2.47;;
44822;SDS011;51097;51.984;5.650;2023-03-23T07:38:57;7.15;;;2.38;;
44822;SDS011;51097;51.984;5.650;2023-03-23T07:41:43;10.65;;;3.88;;
44822;SDS011;51097;51.984;5.650;2023-03-23T07:44:08;6.85;;;2.65;;
44822;SDS011;51097;51.984;5.650;2023-03-23T07:46:39;8.60;;;3.22;;
44822;SDS011;51097;51.984;5.650;2023-03-23T07:58:53;8.25;;;3.28;;
44822;SDS011;51097;51.984;5.650;2023-03-23T08:02:19;9.38;;;3.22;;
44822;SDS011;51097;51.984;5.650;2023-03-23T08:04:59;7.90;;;3.90;;
44822;SDS011;51097;51.984;5.650;2023-03-23T08:07:53;12.18;;;3.30;;
44822;SDS011;51097;51.984;5.650;2023-03-23T08:10:27;11.77;;;4.15;;
44822;SDS011;51097;51.984;5.650;2023-03-23T08:13:16;8.68;;;3.90;;
44822;SDS011;51097;51.984;5.650;2023-03-23T08:15:47;10.18;;;3.42;;
44822;SDS011;51097;51.984;5.650;2023-03-23T08:18:15;8.38;;;3.67;;
44822;SDS011;51097;51.984;5.650;2023-03-23T08:20:41;6.65;;;4.75;;
44822;SDS011;51097;51.984;5.650;2023-03-23T08:23:07;12.07;;;4.35;;
44822;SDS011;51097;51.984;5.650;2023-03-23T08:25:32;9.25;;;3.55;;
44822;SDS011;51097;51.984;5.650;2023-03-23T08:27:59;6.68;;;3.45;;
44822;SDS011;51097;51.984;5.650;2023-03-23T08:30:26;7.28;;;3.25;;
44822;SDS011;51097;51.984;5.650;2023-03-23T08:32:55;5.97;;;3.03;;
44822;SDS011;51097;51.984;5.650;2023-03-23T08:35:23;7.25;;;3.88;;
44822;SDS011;51097;51.984;5.650;2023-03-23T08:37:49;9.93;;;2.72;;
44822;SDS011;51097;51.984;5.650;2023-03-23T08:40:20;6.25;;;2.53;;
44822;SDS011;51097;51.984;5.650;2023-03-23T08:42:47;7.22;;;2.63;;
44822;SDS011;51097;51.984;5.650;2023-03-23T08:45:15;6.32;;;2.78;;
44822;SDS011;51097;51.984;5.650;2023-03-23T08:47:44;9.02;;;2.80;;
44822;SDS011;51097;51.984;5.650;2023-03-23T08:50:12;8.10;;;2.22;;
44822;SDS011;51097;51.984;5.650;2023-03-23T08:52:39;8.25;;;2.20;;
44822;SDS011;51097;51.984;5.650;2023-03-23T08:55:05;7.22;;;2.55;;
44822;SDS011;51097;51.984;5.650;2023-03-23T08:57:33;5.90;;;2.22;;
44822;SDS011;51097;51.984;5.650;2023-03-23T09:00:01;5.75;;;1.55;;
44822;SDS011;51097;51.984;5.650;2023-03-23T09:02:38;3.25;;;1.73;;
44822;SDS011;51097;51.984;5.650;2023-03-23T09:05:03;3.60;;;2.03;;
44822;SDS011;51097;51.984;5.650;2023-03-23T09:07:29;5.13;;;2.80;;
44822;SDS011;51097;51.984;5.650;2023-03-23T09:09:55;9.27;;;2.88;;
44822;SDS011;51097;51.984;5.650;2023-03-23T09:12:21;9.93;;;2.20;;
44822;SDS011;51097;51.984;5.650;2023-03-23T09:14:46;5.43;;;2.00;;
44822;SDS011;51097;51.984;5.650;2023-03-23T09:17:12;6.70;;;2.00;;
44822;SDS011;51097;51.984;5.650;2023-03-23T09:19:38;5.35;;;1.70;;
44822;SDS011;51097;51.984;5.650;2023-03-23T09:22:03;3.45;;;1.83;;
44822;SDS011;51097;51.984;5.650;2023-03-23T09:24:29;7.32;;;2.50;;
44822;SDS011;51097;51.984;5.650;2023-03-23T09:26:55;4.55;;;2.00;;
44822;SDS011;51097;51.984;5.650;2023-03-23T09:29:23;5.72;;;3.25;;
44822;SDS011;51097;51.984;5.650;2023-03-23T09:31:50;8.25;;;2.40;;
44822;SDS011;51097;51.984;5.650;2023-03-23T09:34:23;4.60;;;1.40;;
44822;SDS011;51097;51.984;5.650;2023-03-23T09:37:03;5.07;;;1.88;;
44822;SDS011;51097;51.984;5.650;2023-03-23T09:39:29;5.75;;;1.52;;
44822;SDS011;51097;51.984;5.650;2023-03-23T09:42:02;4.10;;;1.30;;
44822;SDS011;51097;51.984;5.650;2023-03-23T09:47:17;6.28;;;1.60;;
44822;SDS011;51097;51.984;5.650;2023-03-23T09:50:09;8.18;;;1.95;;
44822;SDS011;51097;51.984;5.650;2023-03-23T09:52:46;7.80;;;3.97;;
44822;SDS011;51097;51.984;5.650;2023-03-23T09:55:18;8.77;;;2.53;;
44822;SDS011;51097;51.984;5.650;2023-03-23T10:03:06;9.10;;;3.05;;
44822;SDS011;51097;51.984;5.650;2023-03-23T10:08:21;9.05;;;2.50;;
44822;SDS011;51097;51.984;5.650;2023-03-23T10:11:04;6.70;;;2.30;;
44822;SDS011;51097;51.984;5.650;2023-03-23T10:13:40;9.57;;;3.15;;
44822;SDS011;51097;51.984;5.650;2023-03-23T10:16:27;12.75;;;3.05;;
44822;SDS011;51097;51.984;5.650;2023-03-23T10:21:33;5.38;;;1.77;;
44822;SDS011;51097;51.984;5.650;2023-03-23T10:24:08;12.68;;;2.60;;
44822;SDS011;51097;51.984;5.650;2023-03-23T10:26:48;8.85;;;1.70;;
44822;SDS011;51097;51.984;5.650;2023-03-23T10:29:42;13.50;;;3.03;;
44822;SDS011;51097;51.984;5.650;2023-03-23T10:32:14;9.93;;;2.30;;
44822;SDS011;51097;51.984;5.650;2023-03-23T10:34:50;10.63;;;2.80;;
44822;SDS011;51097;51.984;5.650;2023-03-23T10:39:56;11.90;;;3.53;;
44822;SDS011;51097;51.984;5.650;2023-03-23T10:42:31;9.13;;;2.60;;
44822;SDS011;51097;51.984;5.650;2023-03-23T10:45:21;14.00;;;3.20;;
44822;SDS011;51097;51.984;5.650;2023-03-23T10:47:56;11.63;;;3.72;;
44822;SDS011;51097;51.984;5.650;2023-03-23T10:50:31;10.23;;;2.30;;
44822;SDS011;51097;51.984;5.650;2023-03-23T10:52:59;12.35;;;2.67;;
44822;SDS011;51097;51.984;5.650;2023-03-23T10:55:36;13.50;;;3.28;;
44822;SDS011;51097;51.984;5.650;2023-03-23T10:58:07;7.25;;;2.35;;
44822;SDS011;51097;51.984;5.650;2023-03-23T11:00:45;10.85;;;2.75;;
44822;SDS011;51097;51.984;5.650;2023-03-23T11:05:47;6.57;;;3.42;;
44822;SDS011;51097;51.984;5.650;2023-03-23T11:08:22;10.40;;;2.38;;
44822;SDS011;51097;51.984;5.650;2023-03-23T11:10:51;10.65;;;3.20;;
44822;SDS011;51097;51.984;5.650;2023-03-23T11:13:18;9.32;;;3.42;;
44822;SDS011;51097;51.984;5.650;2023-03-23T11:15:46;11.27;;;2.67;;
44822;SDS011;51097;51.984;5.650;2023-03-23T11:18:18;7.60;;;2.45;;
44822;SDS011;51097;51.984;5.650;2023-03-23T11:20:49;6.25;;;1.85;;
44822;SDS011;51097;51.984;5.650;2023-03-23T11:23:27;6.30;;;2.67;;
44822;SDS011;51097;51.984;5.650;2023-03-23T11:28:52;7.78;;;3.42;;
44822;SDS011;51097;51.984;5.650;2023-03-23T11:31:34;10.10;;;2.72;;
44822;SDS011;51097;51.984;5.650;2023-03-23T11:34:04;8.13;;;2.70;;
44822;SDS011;51097;51.984;5.650;2023-03-23T11:36:38;10.48;;;2.20;;
44822;SDS011;51097;51.984;5.650;2023-03-23T11:41:53;11.38;;;3.03;;
44822;SDS011;51097;51.984;5.650;2023-03-23T11:44:21;9.35;;;2.97;;
44822;SDS011;51097;51.984;5.650;2023-03-23T11:46:51;12.77;;;2.30;;
44822;SDS011;51097;51.984;5.650;2023-03-23T11:49:42;9.53;;;2.77;;
44822;SDS011;51097;51.984;5.650;2023-03-23T11:52:21;9.88;;;2.63;;
44822;SDS011;51097;51.984;5.650;2023-03-23T11:58:11;9.35;;;2.22;;
44822;SDS011;51097;51.984;5.650;2023-03-23T12:00:44;9.77;;;2.10;;
44822;SDS011;51097;51.984;5.650;2023-03-23T12:03:38;8.82;;;2.03;;
44822;SDS011;51097;51.984;5.650;2023-03-23T12:06:09;7.20;;;1.92;;
44822;SDS011;51097;51.984;5.650;2023-03-23T12:14:31;4.32;;;2.35;;
44822;SDS011;51097;51.984;5.650;2023-03-23T12:28:12;9.13;;;2.00;;
44822;SDS011;51097;51.984;5.650;2023-03-23T12:30:49;8.50;;;2.78;;
44822;SDS011;51097;51.984;5.650;2023-03-23T12:33:45;8.80;;;2.65;;
44822;SDS011;51097;51.984;5.650;2023-03-23T12:45:00;10.93;;;3.00;;
44822;SDS011;51097;51.984;5.650;2023-03-23T12:47:31;9.52;;;2.38;;
44822;SDS011;51097;51.984;5.650;2023-03-23T12:50:14;8.18;;;2.72;;
44822;SDS011;51097;51.984;5.650;2023-03-23T12:53:08;4.75;;;2.85;;
44822;SDS011;51097;51.984;5.650;2023-03-23T12:56:02;8.77;;;2.55;;
44822;SDS011;51097;51.984;5.650;2023-03-23T12:58:50;9.75;;;2.67;;
44822;SDS011;51097;51.984;5.650;2023-03-23T13:01:28;9.23;;;2.47;;
44822;SDS011;51097;51.984;5.650;2023-03-23T13:04:05;9.10;;;2.88;;
44822;SDS011;51097;51.984;5.650;2023-03-23T13:06:40;14.30;;;3.22;;
44822;SDS011;51097;51.984;5.650;2023-03-23T13:12:35;13.25;;;2.63;;
44822;SDS011;51097;51.984;5.650;2023-03-23T13:20:55;5.00;;;1.60;;
44822;SDS011;51097;51.984;5.650;2023-03-23T13:26:03;5.75;;;1.25;;
44822;SDS011;51097;51.984;5.650;2023-03-23T13:28:59;6.43;;;1.02;;
44822;SDS011;51097;51.984;5.650;2023-03-23T13:31:30;4.03;;;1.33;;
44822;SDS011;51097;51.984;5.650;2023-03-23T13:36:42;2.83;;;1.10;;
44822;SDS011;51097;51.984;5.650;2023-03-23T13:39:20;5.65;;;1.33;;
44822;SDS011;51097;51.984;5.650;2023-03-23T13:41:46;5.85;;;1.15;;
44822;SDS011;51097;51.984;5.650;2023-03-23T13:44:23;4.53;;;1.45;;
44822;SDS011;51097;51.984;5.650;2023-03-23T13:46:54;6.03;;;1.73;;
44822;SDS011;51097;51.984;5.650;2023-03-23T13:49:22;2.95;;;1.58;;
44822;SDS011;51097;51.984;5.650;2023-03-23T13:52:01;4.82;;;1.27;;
44822;SDS011;51097;51.984;5.650;2023-03-23T13:54:43;4.57;;;1.40;;
44822;SDS011;51097;51.984;5.650;2023-03-23T13:57:23;3.70;;;1.60;;
44822;SDS011;51097;51.984;5.650;2023-03-23T13:59:55;4.68;;;1.88;;
44822;SDS011;51097;51.984;5.650;2023-03-23T14:05:19;3.75;;;2.17;;
44822;SDS011;51097;51.984;5.650;2023-03-23T14:07:51;6.38;;;1.80;;
44822;SDS011;51097;51.984;5.650;2023-03-23T14:10:25;4.78;;;1.65;;
44822;SDS011;51097;51.984;5.650;2023-03-23T14:13:03;8.18;;;2.28;;
44822;SDS011;51097;51.984;5.650;2023-03-23T14:15:42;5.38;;;2.17;;
44822;SDS011;51097;51.984;5.650;2023-03-23T14:18:13;8.45;;;3.20;;
44822;SDS011;51097;51.984;5.650;2023-03-23T14:20:41;6.63;;;2.75;;
44822;SDS011;51097;51.984;5.650;2023-03-23T14:23:14;5.00;;;3.30;;
44822;SDS011;51097;51.984;5.650;2023-03-23T14:25:42;6.15;;;2.50;;
44822;SDS011;51097;51.984;5.650;2023-03-23T14:28:18;4.22;;;1.92;;
44822;SDS011;51097;51.984;5.650;2023-03-23T14:30:46;6.20;;;1.90;;
44822;SDS011;51097;51.984;5.650;2023-03-23T14:33:13;2.47;;;1.63;;
44822;SDS011;51097;51.984;5.650;2023-03-23T14:35:41;5.57;;;1.73;;
44822;SDS011;51097;51.984;5.650;2023-03-23T14:38:29;5.88;;;1.55;;
44822;SDS011;51097;51.984;5.650;2023-03-23T14:40:59;4.45;;;1.65;;
44822;SDS011;51097;51.984;5.650;2023-03-23T14:43:27;5.40;;;1.67;;
44822;SDS011;51097;51.984;5.650;2023-03-23T14:45:54;6.43;;;1.58;;
44822;SDS011;51097;51.984;5.650;2023-03-23T14:48:21;6.55;;;1.63;;
44822;SDS011;51097;51.984;5.650;2023-03-23T14:50:59;9.30;;;1.67;;
44822;SDS011;51097;51.984;5.650;2023-03-23T14:53:37;8.90;;;2.10;;
44822;SDS011;51097;51.984;5.650;2023-03-23T14:56:09;7.78;;;1.77;;
44822;SDS011;51097;51.984;5.650;2023-03-23T14:58:36;5.78;;;2.38;;
44822;SDS011;51097;51.984;5.650;2023-03-23T15:01:07;8.05;;;1.90;;
44822;SDS011;51097;51.984;5.650;2023-03-23T15:03:40;4.93;;;2.10;;
44822;SDS011;51097;51.984;5.650;2023-03-23T15:06:13;7.10;;;1.80;;
44822;SDS011;51097;51.984;5.650;2023-03-23T15:08:42;7.13;;;2.80;;
44822;SDS011;51097;51.984;5.650;2023-03-23T15:11:20;7.82;;;2.45;;
44822;SDS011;51097;51.984;5.650;2023-03-23T15:13:50;4.57;;;1.50;;
44822;SDS011;51097;51.984;5.650;2023-03-23T15:16:31;8.57;;;1.83;;
44822;SDS011;51097;51.984;5.650;2023-03-23T15:18:59;7.60;;;3.05;;
44822;SDS011;51097;51.984;5.650;2023-03-23T15:21:31;8.77;;;2.28;;
44822;SDS011;51097;51.984;5.650;2023-03-23T15:24:18;11.38;;;2.50;;
44822;SDS011;51097;51.984;5.650;2023-03-23T15:27:29;11.27;;;3.53;;
44822;SDS011;51097;51.984;5.650;2023-03-23T15:29:58;8.60;;;2.60;;
44822;SDS011;51097;51.984;5.650;2023-03-23T15:32:40;7.53;;;1.52;;
44822;SDS011;51097;51.984;5.650;2023-03-23T15:35:19;7.75;;;2.22;;
44822;SDS011;51097;51.984;5.650;2023-03-23T15:38:33;8.90;;;4.00;;
44822;SDS011;51097;51.984;5.650;2023-03-23T15:40:43;9.57;;;2.92;;
44822;SDS011;51097;51.984;5.650;2023-03-23T15:43:20;6.45;;;2.75;;
44822;SDS011;51097;51.984;5.650;2023-03-23T15:49:13;6.82;;;2.72;;
44822;SDS011;51097;51.984;5.650;2023-03-23T15:51:29;9.15;;;2.60;;
44822;SDS011;51097;51.984;5.650;2023-03-23T15:53:56;15.57;;;3.00;;
44822;SDS011;51097;51.984;5.650;2023-03-23T15:56:22;12.95;;;2.90;;
44822;SDS011;51097;51.984;5.650;2023-03-23T15:58:49;7.82;;;3.00;;
44822;SDS011;51097;51.984;5.650;2023-03-23T16:01:15;9.88;;;3.15;;
44822;SDS011;51097;51.984;5.650;2023-03-23T16:03:49;9.90;;;2.60;;
44822;SDS011;51097;51.984;5.650;2023-03-23T16:06:18;11.43;;;2.45;;
44822;SDS011;51097;51.984;5.650;2023-03-23T16:08:46;5.85;;;2.50;;
44822;SDS011;51097;51.984;5.650;2023-03-23T16:11:13;9.90;;;3.00;;
44822;SDS011;51097;51.984;5.650;2023-03-23T16:13:40;11.88;;;4.53;;
44822;SDS011;51097;51.984;5.650;2023-03-23T16:16:10;9.13;;;3.03;;
44822;SDS011;51097;51.984;5.650;2023-03-23T16:18:41;6.57;;;3.00;;
44822;SDS011;51097;51.984;5.650;2023-03-23T16:21:07;10.20;;;4.43;;
44822;SDS011;51097;51.984;5.650;2023-03-23T16:23:33;7.70;;;3.22;;
44822;SDS011;51097;51.984;5.650;2023-03-23T16:25:59;11.07;;;3.30;;
44822;SDS011;51097;51.984;5.650;2023-03-23T16:28:24;7.32;;;3.38;;
44822;SDS011;51097;51.984;5.650;2023-03-23T16:30:53;5.63;;;2.55;;
44822;SDS011;51097;51.984;5.650;2023-03-23T16:33:18;6.15;;;2.40;;
44822;SDS011;51097;51.984;5.650;2023-03-23T16:35:44;10.45;;;3.50;;
44822;SDS011;51097;51.984;5.650;2023-03-23T16:38:11;9.13;;;3.42;;
44822;SDS011;51097;51.984;5.650;2023-03-23T16:43:06;8.00;;;2.67;;
44822;SDS011;51097;51.984;5.650;2023-03-23T16:45:31;7.28;;;3.40;;
44822;SDS011;51097;51.984;5.650;2023-03-23T16:47:57;10.32;;;3.47;;
44822;SDS011;51097;51.984;5.650;2023-03-23T16:50:25;7.97;;;2.75;;
44822;SDS011;51097;51.984;5.650;2023-03-23T16:52:53;7.38;;;2.83;;
44822;SDS011;51097;51.984;5.650;2023-03-23T16:55:19;9.50;;;2.90;;
44822;SDS011;51097;51.984;5.650;2023-03-23T16:57:45;9.00;;;3.80;;
44822;SDS011;51097;51.984;5.650;2023-03-23T17:00:15;8.05;;;3.22;;
44822;SDS011;51097;51.984;5.650;2023-03-23T17:02:46;6.18;;;2.22;;
44822;SDS011;51097;51.984;5.650;2023-03-23T17:05:12;10.90;;;2.95;;